createdAt,value
2023-03-08T00:02:30.912Z,4.30
2023-03-08T00:12:36.690Z,3.40
2023-03-08T00:22:59.707Z,4.30
2023-03-08T00:33:06.402Z,5.40
2023-03-08T00:43:12.325Z,5.70
2023-03-08T00:53:18.412Z,5.90
2023-03-08T01:03:24.803Z,6.40
2023-03-08T01:23:35.896Z,5.60
2023-03-08T01:33:42.207Z,5.20
2023-03-08T01:53:54.278Z,6.60
2023-03-08T02:04:00.225Z,8.50
2023-03-08T02:14:06.536Z,4.50
2023-03-08T02:34:25.197Z,5.40
2023-03-08T02:44:30.779Z,5.20
2023-03-08T02:54:36.338Z,4.90
2023-03-08T03:04:41.962Z,3.50
2023-03-08T03:14:47.648Z,4.40
2023-03-08T03:24:54.330Z,6.40
2023-03-08T03:35:00.133Z,5.20
2023-03-08T03:45:06.999Z,3.30
2023-03-08T03:55:13.426Z,3.00
2023-03-08T04:05:19.362Z,3.60
2023-03-08T04:15:25.018Z,6.70
2023-03-08T04:25:30.697Z,3.20
2023-03-08T04:35:36.536Z,10.60
2023-03-08T04:45:42.210Z,4.40
2023-03-08T04:55:48.009Z,4.90
2023-03-08T05:05:56.368Z,4.60
2023-03-08T05:16:02.213Z,4.10
2023-03-08T05:26:10.052Z,4.90
2023-03-08T05:36:16.325Z,5.90
2023-03-08T05:46:22.718Z,6.30
2023-03-08T05:56:28.560Z,4.50
2023-03-08T06:06:35.002Z,8.00
2023-03-08T06:26:45.016Z,6.10
2023-03-08T06:36:52.064Z,7.30
2023-03-08T06:46:57.948Z,7.60
2023-03-08T06:57:05.766Z,10.00
2023-03-08T07:07:12.428Z,8.80
2023-03-08T07:17:18.568Z,7.20
2023-03-08T07:27:24.221Z,5.70
2023-03-08T07:37:29.977Z,6.20
2023-03-08T07:47:35.729Z,4.00
2023-03-08T07:57:41.376Z,7.50
2023-03-08T08:07:48.552Z,7.10
2023-03-08T08:17:54.560Z,6.00
2023-03-08T08:28:00.170Z,5.80
2023-03-08T08:38:05.854Z,5.10
2023-03-08T08:48:11.630Z,4.80
2023-03-08T08:58:17.803Z,4.10
2023-03-08T09:08:23.475Z,7.30
2023-03-08T09:18:29.150Z,6.70
2023-03-08T09:28:35.266Z,5.10
2023-03-08T09:38:41.163Z,5.90
2023-03-08T09:48:51.084Z,5.30
2023-03-08T09:59:00.777Z,4.30
2023-03-08T10:09:16.390Z,4.90
2023-03-08T10:19:29.610Z,3.10
2023-03-08T10:29:35.305Z,4.40
2023-03-08T10:39:53.160Z,5.00
2023-03-08T10:50:18.125Z,2.70
2023-03-08T11:00:32.073Z,3.50
2023-03-08T11:10:40.440Z,4.20
2023-03-08T11:20:50.371Z,5.90
2023-03-08T11:31:09.437Z,4.90
2023-03-08T11:41:24.827Z,6.00
2023-03-08T11:51:38.811Z,9.50
2023-03-08T12:01:49.661Z,11.40
2023-03-08T12:12:01.363Z,6.50
2023-03-08T12:22:18.345Z,7.90
2023-03-08T12:32:25.642Z,7.70
2023-03-08T12:52:43.646Z,8.00
2023-03-08T13:02:59.528Z,5.50
2023-03-08T13:13:37.591Z,10.00
2023-03-08T13:23:50.710Z,6.80
2023-03-08T13:33:57.650Z,8.30
2023-03-08T13:44:08.265Z,9.20
2023-03-08T13:54:23.454Z,12.70
2023-03-08T14:04:31.620Z,9.00
2023-03-08T14:14:40.623Z,11.00
2023-03-08T14:24:54.340Z,15.20
2023-03-08T14:35:16.295Z,15.90
2023-03-08T14:45:25.004Z,13.40
2023-03-08T14:55:33.503Z,11.20
2023-03-08T15:05:39.924Z,10.10
2023-03-08T15:15:46.233Z,12.70
2023-03-08T15:25:52.679Z,16.20
2023-03-08T15:35:59.208Z,13.50
2023-03-08T15:46:04.891Z,16.50
2023-03-08T15:56:10.640Z,18.90
2023-03-08T16:06:18.224Z,15.10
2023-03-08T16:16:32.292Z,17.30
2023-03-08T16:26:48.453Z,19.10
2023-03-08T16:36:56.116Z,24.40
2023-03-08T16:47:01.914Z,22.20
2023-03-08T16:57:18.559Z,17.50
2023-03-08T17:07:24.577Z,21.90
2023-03-08T17:17:30.275Z,19.00
2023-03-08T17:27:36.014Z,27.00
2023-03-08T17:37:42.553Z,30.70
2023-03-08T17:57:52.517Z,28.30
2023-03-08T18:07:58.888Z,30.70
2023-03-08T18:18:04.676Z,27.10
2023-03-08T18:28:10.501Z,24.20
2023-03-08T18:38:16.286Z,26.80
2023-03-08T18:48:22.645Z,25.00
2023-03-08T19:08:33.321Z,24.50
2023-03-08T19:18:38.938Z,23.20
2023-03-08T19:28:44.766Z,21.20
2023-03-08T19:38:50.765Z,25.00
2023-03-08T19:48:57.654Z,24.90
2023-03-08T19:59:04.142Z,23.60
2023-03-08T20:19:15.274Z,19.60
2023-03-08T20:29:21.062Z,22.30
2023-03-08T20:39:26.743Z,17.90
2023-03-08T20:49:32.462Z,16.60
2023-03-08T20:59:38.432Z,16.10
2023-03-08T21:09:46.016Z,15.50
2023-03-08T21:19:51.960Z,14.60
2023-03-08T21:29:58.223Z,15.20
2023-03-08T21:40:07.296Z,17.60
2023-03-08T21:50:14.542Z,18.10
2023-03-08T22:00:20.911Z,14.70
2023-03-08T22:10:26.625Z,13.50
2023-03-08T22:20:32.303Z,13.10
2023-03-08T22:30:37.940Z,13.00
2023-03-08T22:40:44.065Z,9.10
2023-03-08T22:50:56.305Z,10.00
2023-03-08T23:01:15.090Z,8.70
2023-03-08T23:11:20.841Z,7.30
2023-03-08T23:21:29.434Z,7.10
2023-03-08T23:31:37.380Z,6.00
2023-03-08T23:41:43.313Z,7.20
2023-03-08T23:51:54.061Z,11.50
